Time;durP1;ratioP1;P1;durP2;ratioP2;P2;SDS_P1;SDS_P2;PMS_P1;PMS_P2;Temp;Humidity;BMP_temperature;BMP_pressure;BME280_temperature;BME280_humidity;BME280_pressure;Samples;Min_cycle;Max_cycle;Signal;HPM_P1;HPM_P2
2022/07/03 00:01:22;;;;;;;;;;;;;;;;;;4949145;28;135378;-65
2022/07/03 00:03:49;;;;;;;;;;;;;;;;;;4962247;28;134767;-64
2022/07/03 00:06:15;;;;;;;;;;;;;;;;;;4947338;28;123224;-64
2022/07/03 00:08:41;;;;;;;;;;;;;;;;;;4961119;28;128599;-64
2022/07/03 00:11:08;;;;;;;;;;;;;;;;;;4948516;28;134964;-64
2022/07/03 00:13:34;;;;;;;;;;;;;;;;;;4952851;28;106416;-64
2022/07/03 00:16:00;;;;;;;;;;;;;;;;;;4953875;28;118194;-64
2022/07/03 00:18:27;;;;;;;;;;;;;;;;;;4962557;28;125575;-64
2022/07/03 00:20:53;;;;;;;;;;;;;;;;;;4951101;28;137535;-64
2022/07/03 00:23:19;;;;;;;;;;;;;;;;;;4957241;28;136211;-65
2022/07/03 00:25:46;;;;;;;;;;;;;;;;;;4960633;28;105685;-64
2022/07/03 00:28:12;;;;;;;;;;;;;;;;;;4962527;28;135259;-64
2022/07/03 00:30:38;;;;;;;;;;;;;;;;;;4967311;28;133640;-64
2022/07/03 00:33:05;;;;;;;;;;;;;;;;;;4954205;28;123898;-64
2022/07/03 00:35:31;;;;;;;;;;;;;;;;;;4954015;28;129283;-64
2022/07/03 00:37:58;;;;;;;;;;;;;;;;;;4959899;28;119178;-64
2022/07/03 00:40:24;;;;;;;;;;;;;;;;;;4947897;28;136196;-64
2022/07/03 00:42:53;;;;;;;;;;;;;;;;;;4959687;28;126734;-64
2022/07/03 00:45:19;;;;;;;;;;;;;;;;;;4960383;28;106324;-64
2022/07/03 00:47:45;;;;;;;;;;;;;;;;;;4969292;28;131307;-64
2022/07/03 00:50:12;;;;;;;;;;;;;;;;;;4965272;28;134640;-64
2022/07/03 00:52:39;;;;;;;;;;;;;;;;;;4962994;28;123949;-64
2022/07/03 00:55:05;;;;;;;;;;;;;;;;;;4949754;28;137021;-64
2022/07/03 00:57:31;;;;;;;;;;;;;;;;;;4956209;28;105975;-64
2022/07/03 00:59:58;;;;;;;;;;;;;;;;;;4962539;28;134907;-64
2022/07/03 01:02:24;;;;;;;;;;;;;;;;;;4967619;28;137752;-64
2022/07/03 01:04:50;;;;;;;;;;;;;;;;;;4965389;28;107005;-64
2022/07/03 01:07:17;;;;;;;;;;;;;;;;;;4971482;22;129850;-64
2022/07/03 01:09:43;;;;;;;;;;;;;;;;;;4991424;28;126107;-64
2022/07/03 01:12:11;;;;;;;;;;;;;;;;;;4989593;28;107459;-64
2022/07/03 01:14:37;;;;;;;;;;;;;;;;;;4985812;28;107448;-64
2022/07/03 01:17:04;;;;;;;;;;;;;;;;;;4992079;28;136311;-64
2022/07/03 01:19:30;;;;;;;;;;;;;;;;;;4990429;28;134925;-64
2022/07/03 01:21:56;;;;;;;;;;;;;;;;;;5005736;28;135859;-64
2022/07/03 01:24:23;;;;;;;;;;;;;;;;;;4987137;28;118190;-65
2022/07/03 01:26:49;;;;;;;;;;;;;;;;;;4983698;28;118473;-64
2022/07/03 01:29:15;;;;;;;;;;;;;;;;;;4975470;28;125594;-64
2022/07/03 01:31:42;;;;;;;;;;;;;;;;;;4990330;28;106467;-64
2022/07/03 01:34:08;;;;;;;;;;;;;;;;;;4989910;28;133497;-64
2022/07/03 01:36:35;;;;;;;;;;;;;;;;;;4990010;28;123479;-64
2022/07/03 01:39:01;;;;;;;;;;;;;;;;;;4994229;28;115205;-64
2022/07/03 01:41:27;;;;;;;;;;;;;;;;;;4989057;28;114647;-64
2022/07/03 01:43:54;;;;;;;;;;;;;;;;;;4990772;28;109835;-64
2022/07/03 01:46:20;;;;;;;;;;;;;;;;;;4987526;28;135365;-64
2022/07/03 01:48:46;;;;;;;;;;;;;;;;;;4987601;28;107332;-64
2022/07/03 01:51:13;;;;;;;;;;;;;;;;;;4988457;28;122486;-64
2022/07/03 01:53:39;;;;;;;;;;;;;;;;;;4985119;28;132773;-64
2022/07/03 01:56:05;;;;;;;;;;;;;;;;;;4991058;28;108961;-64
2022/07/03 01:58:32;;;;;;;;;;;;;;;;;;4989371;28;122726;-64
2022/07/03 02:00:58;;;;;;;;;;;;;;;;;;4990802;28;124085;-64
2022/07/03 02:03:25;;;;;;;;;;;;;;;;;;4987579;28;107159;-64
2022/07/03 02:05:51;;;;;;;;;;;;;;;;;;4980518;28;125015;-64
2022/07/03 02:08:17;;;;;;;;;;;;;;;;;;4989430;28;136884;-64
2022/07/03 02:10:46;;;;;;;;;;;;;;;;;;4989099;28;124163;-64
2022/07/03 02:13:12;;;;;;;;;;;;;;;;;;4988149;28;129309;-63
2022/07/03 02:15:39;;;;;;;;;;;;;;;;;;4986667;28;137867;-63
2022/07/03 02:18:05;;;;;;;;;;;;;;;;;;4987747;28;107258;-64
2022/07/03 02:20:31;;;;;;;;;;;;;;;;;;4986285;28;134745;-64
2022/07/03 02:22:57;;;;;;;;;;;;;;;;;;4992337;28;137264;-63
2022/07/03 02:25:24;;;;;;;;;;;;;;;;;;4977046;28;114601;-63
2022/07/03 02:27:53;;;;;;;;;;;;;;;;;;4988544;28;107549;-63
2022/07/03 02:30:20;;;;;;;;;;;;;;;;;;4988746;28;121713;-63
2022/07/03 02:32:46;;;;;;;;;;;;;;;;;;4984964;28;137301;-63
2022/07/03 02:35:12;;;;;;;;;;;;;;;;;;4989443;28;107446;-63
2022/07/03 02:37:39;;;;;;;;;;;;;;;;;;4988255;28;121145;-63
2022/07/03 02:40:05;;;;;;;;;;;;;;;;;;4989752;28;135272;-63
2022/07/03 02:42:31;;;;;;;;;;;;;;;;;;4987923;28;106695;-63
2022/07/03 02:44:58;;;;;;;;;;;;;;;;;;4982383;28;124285;-63
2022/07/03 02:47:24;;;;;;;;;;;;;;;;;;4987536;28;139381;-63
2022/07/03 02:49:50;;;;;;;;;;;;;;;;;;4984594;28;123210;-63
2022/07/03 02:52:17;;;;;;;;;;;;;;;;;;4981774;28;126266;-63
2022/07/03 02:54:43;;;;;;;;;;;;;;;;;;4988262;28;115928;-63
2022/07/03 02:57:09;;;;;;;;;;;;;;;;;;4987741;28;115398;-64
2022/07/03 02:59:36;;;;;;;;;;;;;;;;;;4989023;28;134453;-63
2022/07/03 03:02:02;;;;;;;;;;;;;;;;;;4987513;28;137792;-63
2022/07/03 03:04:28;;;;;;;;;;;;;;;;;;4991236;28;123910;-63
2022/07/03 03:06:55;;;;;;;;;;;;;;;;;;4984057;28;119443;-63
2022/07/03 03:09:21;;;;;;;;;;;;;;;;;;4988824;28;124372;-64
2022/07/03 03:11:47;;;;;;;;;;;;;;;;;;4990337;28;114405;-63
2022/07/03 03:14:14;;;;;;;;;;;;;;;;;;4995052;28;137270;-63
2022/07/03 03:16:40;;;;;;;;;;;;;;;;;;4988382;28;123219;-63
2022/07/03 03:19:06;;;;;;;;;;;;;;;;;;4985411;28;137228;-64
2022/07/03 03:21:32;;;;;;;;;;;;;;;;;;4984016;28;135928;-64
2022/07/03 03:23:59;;;;;;;;;;;;;;;;;;4988712;28;123536;-64
2022/07/03 03:26:25;;;;;;;;;;;;;;;;;;4991829;28;106837;-64
2022/07/03 03:28:51;;;;;;;;;;;;;;;;;;4987192;28;121497;-63
2022/07/03 03:31:18;;;;;;;;;;;;;;;;;;4986422;28;133097;-63
2022/07/03 03:33:45;;;;;;;;;;;;;;;;;;4987905;28;107270;-64
2022/07/03 03:36:11;;;;;;;;;;;;;;;;;;4981562;28;123341;-64
2022/07/03 03:38:38;;;;;;;;;;;;;;;;;;4989261;28;112450;-64
2022/07/03 03:41:04;;;;;;;;;;;;;;;;;;4987939;28;135670;-63
2022/07/03 03:43:30;;;;;;;;;;;;;;;;;;4987064;28;123205;-64
2022/07/03 03:45:57;;;;;;;;;;;;;;;;;;4988288;28;120667;-64
2022/07/03 03:48:23;;;;;;;;;;;;;;;;;;4990184;28;136522;-64
2022/07/03 03:50:49;;;;;;;;;;;;;;;;;;4986059;28;121799;-63
2022/07/03 03:53:16;;;;;;;;;;;;;;;;;;4992084;28;128736;-63
2022/07/03 03:55:42;;;;;;;;;;;;;;;;;;4991016;28;109551;-63
2022/07/03 03:58:08;;;;;;;;;;;;;;;;;;4992171;28;106262;-64
2022/07/03 04:00:35;;;;;;;;;;;;;;;;;;4990111;28;137628;-64
2022/07/03 04:03:01;;;;;;;;;;;;;;;;;;4991467;28;123132;-62
2022/07/03 04:05:27;;;;;;;;;;;;;;;;;;4983605;28;123901;-63
2022/07/03 04:07:53;;;;;;;;;;;;;;;;;;4986486;28;113399;-64
2022/07/03 04:10:20;;;;;;;;;;;;;;;;;;4995218;28;119010;-63
2022/07/03 04:12:46;;;;;;;;;;;;;;;;;;4991815;28;109290;-63
2022/07/03 04:15:12;;;;;;;;;;;;;;;;;;4990721;28;121900;-63
2022/07/03 04:17:39;;;;;;;;;;;;;;;;;;4981350;28;135458;-63
2022/07/03 04:20:05;;;;;;;;;;;;;;;;;;4984177;28;125869;-63
2022/07/03 04:22:31;;;;;;;;;;;;;;;;;;4991365;28;116151;-63
2022/07/03 04:24:57;;;;;;;;;;;;;;;;;;4991374;28;135149;-63
2022/07/03 04:27:24;;;;;;;;;;;;;;;;;;4988721;28;138482;-63
2022/07/03 04:30:10;;;;;;;;;;;;;;;;;;4981355;28;108075;-64
2022/07/03 04:32:36;;;;;;;;;;;;;;;;;;4994183;28;132971;-64
2022/07/03 04:35:03;;;;;;;;;;;;;;;;;;4990994;28;123317;-63
2022/07/03 04:37:29;;;;;;;;;;;;;;;;;;4991524;28;112297;-63
2022/07/03 04:39:55;;;;;;;;;;;;;;;;;;4990442;28;134062;-63
2022/07/03 04:42:21;;;;;;;;;;;;;;;;;;4989807;28;118143;-64
2022/07/03 04:44:48;;;;;;;;;;;;;;;;;;4989904;28;134232;-63
2022/07/03 04:47:14;;;;;;;;;;;;;;;;;;4987655;28;133494;-64
2022/07/03 04:49:41;;;;;;;;;;;;;;;;;;4988833;28;122886;-64
2022/07/03 04:52:07;;;;;;;;;;;;;;;;;;4992118;28;125160;-64
2022/07/03 04:54:34;;;;;;;;;;;;;;;;;;4992194;28;126063;-64
2022/07/03 04:57:00;;;;;;;;;;;;;;;;;;4983903;28;106939;-64
2022/07/03 04:59:26;;;;;;;;;;;;;;;;;;4977793;28;135674;-63
2022/07/03 05:01:52;;;;;;;;;;;;;;;;;;4990455;28;124058;-64
2022/07/03 05:04:19;;;;;;;;;;;;;;;;;;4986163;28;135236;-63
2022/07/03 05:06:45;;;;;;;;;;;;;;;;;;4987323;28;137800;-64
2022/07/03 05:09:11;;;;;;;;;;;;;;;;;;4989069;28;106382;-64
2022/07/03 05:11:38;;;;;;;;;;;;;;;;;;4985321;28;136158;-64
2022/07/03 05:14:04;;;;;;;;;;;;;;;;;;4992134;28;124847;-64
2022/07/03 05:16:30;;;;;;;;;;;;;;;;;;4987104;28;122012;-64
2022/07/03 05:18:57;;;;;;;;;;;;;;;;;;4990522;28;137270;-65
2022/07/03 05:21:23;;;;;;;;;;;;;;;;;;4984831;28;122546;-65
2022/07/03 05:23:49;;;;;;;;;;;;;;;;;;4987077;28;132747;-64
2022/07/03 05:26:15;;;;;;;;;;;;;;;;;;4989688;28;137575;-63
2022/07/03 05:28:42;;;;;;;;;;;;;;;;;;4987965;28;122657;-64
2022/07/03 05:31:08;;;;;;;;;;;;;;;;;;4989419;28;136307;-64
2022/07/03 05:33:34;;;;;;;;;;;;;;;;;;4990014;28;119526;-63
2022/07/03 05:36:01;;;;;;;;;;;;;;;;;;4994701;28;109413;-63
2022/07/03 05:41:12;;;;;;;;;;;;;;;;;;4988080;28;114192;-64
2022/07/03 05:43:38;;;;;;;;;;;;;;;;;;4986776;28;106806;-64
2022/07/03 05:46:05;;;;;;;;;;;;;;;;;;4983412;28;123501;-63
2022/07/03 05:48:31;;;;;;;;;;;;;;;;;;4988453;28;122197;-64
2022/07/03 05:50:57;;;;;;;;;;;;;;;;;;4989255;28;136579;-64
2022/07/03 05:53:24;;;;;;;;;;;;;;;;;;4989049;28;137442;-64
2022/07/03 05:55:50;;;;;;;;;;;;;;;;;;4989897;28;110713;-64
2022/07/03 05:58:16;;;;;;;;;;;;;;;;;;4991779;28;109478;-64
2022/07/03 06:00:43;;;;;;;;;;;;;;;;;;4988126;28;125721;-63
2022/07/03 06:03:09;;;;;;;;;;;;;;;;;;4989836;28;108282;-64
2022/07/03 06:05:35;;;;;;;;;;;;;;;;;;4988802;28;136567;-63
2022/07/03 06:08:02;;;;;;;;;;;;;;;;;;4986683;28;111728;-64
2022/07/03 06:10:28;;;;;;;;;;;;;;;;;;5000146;28;135772;-64
2022/07/03 06:12:54;;;;;;;;;;;;;;;;;;5002650;28;112236;-64
2022/07/03 06:15:21;;;;;;;;;;;;;;;;;;4978670;28;122087;-64
2022/07/03 06:17:47;;;;;;;;;;;;;;;;;;4985525;28;135112;-64
2022/07/03 06:20:13;;;;;;;;;;;;;;;;;;4992549;28;113751;-64
2022/07/03 06:22:40;;;;;;;;;;;;;;;;;;4988047;28;133052;-64
2022/07/03 06:25:06;;;;;;;;;;;;;;;;;;4988309;28;137252;-64
2022/07/03 06:27:32;;;;;;;;;;;;;;;;;;4987809;28;122668;-64
2022/07/03 06:29:59;;;;;;;;;;;;;;;;;;4988278;28;137231;-64
2022/07/03 06:32:25;;;;;;;;;;;;;;;;;;4987708;28;137594;-64
2022/07/03 06:34:52;;;;;;;;;;;;;;;;;;4976731;28;107090;-64
2022/07/03 06:37:18;;;;;;;;;;;;;;;;;;4987307;28;132172;-64
2022/07/03 06:39:44;;;;;;;;;;;;;;;;;;4989191;28;107415;-64
2022/07/03 06:42:11;;;;;;;;;;;;;;;;;;4991280;28;122207;-64
2022/07/03 06:44:37;;;;;;;;;;;;;;;;;;4985970;28;138663;-64
2022/07/03 06:47:03;;;;;;;;;;;;;;;;;;4987540;28;121956;-63
2022/07/03 06:49:30;;;;;;;;;;;;;;;;;;4988171;28;136147;-64
2022/07/03 06:51:56;;;;;;;;;;;;;;;;;;4984483;28;120841;-64
2022/07/03 06:54:22;;;;;;;;;;;;;;;;;;4988653;28;123784;-64
2022/07/03 06:56:49;;;;;;;;;;;;;;;;;;4989144;28;108443;-64
2022/07/03 06:59:15;;;;;;;;;;;;;;;;;;4987431;28;115626;-64
2022/07/03 07:01:41;;;;;;;;;;;;;;;;;;4988267;28;121924;-64
2022/07/03 07:04:07;;;;;;;;;;;;;;;;;;4987459;28;136316;-64
2022/07/03 07:06:34;;;;;;;;;;;;;;;;;;4987852;28;120296;-63
2022/07/03 07:09:00;;;;;;;;;;;;;;;;;;4986652;28;135324;-63
2022/07/03 07:11:26;;;;;;;;;;;;;;;;;;4986006;28;137061;-63
2022/07/03 07:13:53;;;;;;;;;;;;;;;;;;4987108;28;119258;-64
2022/07/03 07:16:19;;;;;;;;;;;;;;;;;;4988508;28;136795;-63
2022/07/03 07:18:45;;;;;;;;;;;;;;;;;;4988394;28;137944;-63
2022/07/03 07:21:12;;;;;;;;;;;;;;;;;;4985497;28;110973;-63
2022/07/03 07:23:38;;;;;;;;;;;;;;;;;;4990836;28;137911;-63
2022/07/03 07:26:04;;;;;;;;;;;;;;;;;;4984692;28;116313;-63
2022/07/03 07:28:33;;;;;;;;;;;;;;;;;;4987200;28;130782;-63
2022/07/03 07:30:59;;;;;;;;;;;;;;;;;;4986664;28;135929;-63
2022/07/03 07:33:25;;;;;;;;;;;;;;;;;;4988239;28;119640;-64
2022/07/03 07:35:52;;;;;;;;;;;;;;;;;;4987434;28;107081;-63
2022/07/03 07:38:18;;;;;;;;;;;;;;;;;;4987560;28;136414;-64
2022/07/03 07:40:44;;;;;;;;;;;;;;;;;;4987840;28;106848;-63
2022/07/03 07:43:11;;;;;;;;;;;;;;;;;;4988023;28;118551;-63
2022/07/03 07:45:37;;;;;;;;;;;;;;;;;;4988799;28;126112;-63
2022/07/03 07:48:03;;;;;;;;;;;;;;;;;;4987260;28;136674;-63
2022/07/03 07:50:30;;;;;;;;;;;;;;;;;;4985676;28;137990;-63
2022/07/03 07:52:56;;;;;;;;;;;;;;;;;;4986935;28;123923;-63
2022/07/03 07:55:22;;;;;;;;;;;;;;;;;;4987278;28;131878;-63
2022/07/03 07:57:48;;;;;;;;;;;;;;;;;;4987477;28;131404;-63
2022/07/03 08:00:15;;;;;;;;;;;;;;;;;;4985382;28;122150;-63
2022/07/03 08:05:35;;;;;;;;;;;;;;;;;;4985124;28;117715;-64
2022/07/03 08:08:01;;;;;;;;;;;;;;;;;;4990259;28;123197;-64
2022/07/03 08:10:28;;;;;;;;;;;;;;;;;;4986307;28;137147;-64
2022/07/03 08:12:54;;;;;;;;;;;;;;;;;;4987946;28;120674;-63
2022/07/03 08:15:20;;;;;;;;;;;;;;;;;;4986687;28;135438;-63
2022/07/03 08:17:47;;;;;;;;;;;;;;;;;;4972699;28;137283;-63
2022/07/03 08:20:13;;;;;;;;;;;;;;;;;;4986433;28;122591;-63
2022/07/03 08:22:39;;;;;;;;;;;;;;;;;;4972547;28;134594;-63
2022/07/03 08:25:05;;;;;;;;;;;;;;;;;;4987538;28;131084;-63
2022/07/03 08:27:32;;;;;;;;;;;;;;;;;;4986557;28;106631;-63
2022/07/03 08:29:58;;;;;;;;;;;;;;;;;;4988962;28;124568;-64
2022/07/03 08:32:24;;;;;;;;;;;;;;;;;;4985898;28;124461;-63
2022/07/03 08:34:51;;;;;;;;;;;;;;;;;;4987804;28;135560;-64
2022/07/03 08:37:17;;;;;;;;;;;;;;;;;;4994390;28;136095;-63
2022/07/03 08:39:43;;;;;;;;;;;;;;;;;;4990246;28;106779;-63
2022/07/03 08:42:09;;;;;;;;;;;;;;;;;;4988795;28;138174;-64
2022/07/03 08:44:39;;;;;;;;;;;;;;;;;;4987974;28;135414;-63
2022/07/03 08:47:06;;;;;;;;;;;;;;;;;;4987992;28;112149;-64
2022/07/03 08:49:32;;;;;;;;;;;;;;;;;;4989677;28;135164;-63
2022/07/03 08:51:58;;;;;;;;;;;;;;;;;;4993099;28;137431;-63
2022/07/03 08:54:24;;;;;;;;;;;;;;;;;;4983233;28;106836;-64
2022/07/03 08:56:51;;;;;;;;;;;;;;;;;;4987417;28;137698;-64
2022/07/03 08:59:17;;;;;;;;;;;;;;;;;;4987374;28;124034;-65
2022/07/03 09:01:44;;;;;;;;;;;;;;;;;;4984485;28;136763;-63
2022/07/03 09:04:11;;;;;;;;;;;;;;;;;;4988352;28;114678;-65
2022/07/03 09:06:37;;;;;;;;;;;;;;;;;;4987899;28;106910;-64
2022/07/03 09:09:03;;;;;;;;;;;;;;;;;;4983856;28;137546;-66
2022/07/03 09:11:30;;;;;;;;;;;;;;;;;;4981153;28;134077;-63
2022/07/03 09:13:56;;;;;;;;;;;;;;;;;;4993649;28;106200;-63
2022/07/03 09:16:22;;;;;;;;;;;;;;;;;;4985364;28;137516;-63
2022/07/03 09:18:49;;;;;;;;;;;;;;;;;;4987390;28;121940;-65
2022/07/03 09:21:15;;;;;;;;;;;;;;;;;;4984408;28;131772;-63
2022/07/03 09:23:41;;;;;;;;;;;;;;;;;;4987741;28;109663;-63
2022/07/03 09:26:08;;;;;;;;;;;;;;;;;;4984807;28;120598;-63
2022/07/03 09:28:34;;;;;;;;;;;;;;;;;;4983032;28;116487;-62
2022/07/03 09:31:00;;;;;;;;;;;;;;;;;;4989122;28;113938;-62
2022/07/03 09:33:27;;;;;;;;;;;;;;;;;;4993482;28;116800;-64
2022/07/03 09:35:53;;;;;;;;;;;;;;;;;;4983210;28;120531;-63
2022/07/03 09:38:20;;;;;;;;;;;;;;;;;;4981133;28;119233;-63
2022/07/03 09:40:46;;;;;;;;;;;;;;;;;;4984324;28;108978;-62
2022/07/03 09:43:12;;;;;;;;;;;;;;;;;;4979389;28;134682;-62
2022/07/03 09:45:39;;;;;;;;;;;;;;;;;;4983709;28;122272;-62
2022/07/03 09:48:05;;;;;;;;;;;;;;;;;;4989302;28;134442;-64
2022/07/03 09:50:51;;;;;;;;;;;;;;;;;;4981754;28;106509;-64
2022/07/03 09:53:18;;;;;;;;;;;;;;;;;;4979714;28;122095;-63
2022/07/03 09:55:44;;;;;;;;;;;;;;;;;;4987934;28;107552;-64
2022/07/03 09:58:10;;;;;;;;;;;;;;;;;;4989485;28;113586;-64
2022/07/03 10:00:36;;;;;;;;;;;;;;;;;;5003592;28;135715;-64
2022/07/03 10:03:03;;;;;;;;;;;;;;;;;;4988384;28;136285;-64
2022/07/03 10:05:29;;;;;;;;;;;;;;;;;;4986968;28;122968;-63
2022/07/03 10:07:56;;;;;;;;;;;;;;;;;;4988297;28;110434;-63
2022/07/03 10:10:22;;;;;;;;;;;;;;;;;;4988200;28;135949;-64
2022/07/03 10:12:48;;;;;;;;;;;;;;;;;;4989719;28;124163;-64
2022/07/03 10:15:15;;;;;;;;;;;;;;;;;;4988903;28;111465;-64
2022/07/03 10:17:41;;;;;;;;;;;;;;;;;;4992837;28;137854;-67
2022/07/03 10:20:07;;;;;;;;;;;;;;;;;;4986908;28;136810;-63
2022/07/03 10:22:33;;;;;;;;;;;;;;;;;;4987572;28;133467;-65
2022/07/03 10:25:00;;;;;;;;;;;;;;;;;;4986174;28;123733;-64
2022/07/03 10:27:26;;;;;;;;;;;;;;;;;;4987351;28;136523;-64
2022/07/03 10:29:52;;;;;;;;;;;;;;;;;;4986189;28;137123;-64
2022/07/03 10:32:19;;;;;;;;;;;;;;;;;;4986480;28;124633;-65
2022/07/03 10:34:45;;;;;;;;;;;;;;;;;;4984825;28;109205;-63
2022/07/03 10:37:13;;;;;;;;;;;;;;;;;;4987950;28;108469;-63
2022/07/03 10:39:39;;;;;;;;;;;;;;;;;;4986677;28;123690;-66
2022/07/03 10:44:51;;;;;;;;;;;;;;;;;;4986192;28;123573;-65
2022/07/03 10:47:17;;;;;;;;;;;;;;;;;;4987515;28;138183;-64
2022/07/03 10:49:43;;;;;;;;;;;;;;;;;;4974996;28;137678;-64
2022/07/03 10:52:10;;;;;;;;;;;;;;;;;;4986925;28;107033;-64
2022/07/03 10:54:37;;;;;;;;;;;;;;;;;;4987300;28;137969;-64
2022/07/03 10:57:03;;;;;;;;;;;;;;;;;;4984473;28;137775;-63
2022/07/03 10:59:29;;;;;;;;;;;;;;;;;;4980214;28;121292;-63
2022/07/03 11:01:55;;;;;;;;;;;;;;;;;;4990805;28;108306;-63
2022/07/03 11:04:22;;;;;;;;;;;;;;;;;;4981489;28;123709;-63
2022/07/03 11:06:48;;;;;;;;;;;;;;;;;;4986385;28;115536;-63
2022/07/03 11:09:14;;;;;;;;;;;;;;;;;;4982231;28;135097;-62
2022/07/03 11:11:57;;;;;;;;;;;;;;;;;;4987607;28;112512;-62
2022/07/03 11:14:23;;;;;;;;;;;;;;;;;;4985624;28;133455;-62
2022/07/03 11:16:49;;;;;;;;;;;;;;;;;;4986839;28;138061;-63
2022/07/03 11:19:16;;;;;;;;;;;;;;;;;;4981296;28;121299;-63
2022/07/03 11:21:42;;;;;;;;;;;;;;;;;;4987129;28;137197;-61
2022/07/03 11:24:08;;;;;;;;;;;;;;;;;;4990719;28;107169;-62
2022/07/03 11:26:34;;;;;;;;;;;;;;;;;;4986456;28;137519;-62
2022/07/03 11:29:01;;;;;;;;;;;;;;;;;;4977774;28;137774;-62
2022/07/03 11:31:27;;;;;;;;;;;;;;;;;;4969189;28;120860;-62
2022/07/03 11:33:54;;;;;;;;;;;;;;;;;;4982956;28;136951;-64
2022/07/03 11:36:20;;;;;;;;;;;;;;;;;;4987195;28;136832;-62
2022/07/03 11:38:46;;;;;;;;;;;;;;;;;;4986660;28;107062;-60
2022/07/03 11:41:13;;;;;;;;;;;;;;;;;;4987668;28;109287;-63
2022/07/03 11:43:39;;;;;;;;;;;;;;;;;;4976543;28;126819;-63
2022/07/03 11:46:05;;;;;;;;;;;;;;;;;;4987736;28;129950;-63
2022/07/03 11:48:32;;;;;;;;;;;;;;;;;;4999756;27;135873;-63
2022/07/03 11:50:58;;;;;;;;;;;;;;;;;;4986254;28;123437;-63
2022/07/03 11:53:25;;;;;;;;;;;;;;;;;;4985124;28;137636;-63
2022/07/03 11:55:51;;;;;;;;;;;;;;;;;;4988463;28;106644;-64
2022/07/03 11:58:18;;;;;;;;;;;;;;;;;;4981801;28;113123;-64
2022/07/03 12:00:44;;;;;;;;;;;;;;;;;;4986775;28;125958;-64
2022/07/03 12:03:10;;;;;;;;;;;;;;;;;;4976012;28;136688;-64
2022/07/03 12:05:37;;;;;;;;;;;;;;;;;;4989406;28;107205;-63
2022/07/03 12:08:03;;;;;;;;;;;;;;;;;;4971848;28;120178;-64
2022/07/03 12:10:30;;;;;;;;;;;;;;;;;;4982413;28;115009;-64
2022/07/03 12:12:56;;;;;;;;;;;;;;;;;;4998382;27;136363;-64
2022/07/03 12:15:22;;;;;;;;;;;;;;;;;;4986089;28;137035;-64
2022/07/03 12:17:48;;;;;;;;;;;;;;;;;;4991333;28;122118;-63
2022/07/03 12:20:15;;;;;;;;;;;;;;;;;;4985095;28;136493;-63
2022/07/03 12:22:42;;;;;;;;;;;;;;;;;;4986572;28;108324;-66
2022/07/03 12:25:08;;;;;;;;;;;;;;;;;;4984681;28;122687;-64
2022/07/03 12:27:34;;;;;;;;;;;;;;;;;;4990839;28;136172;-66
2022/07/03 12:30:00;;;;;;;;;;;;;;;;;;4987612;28;120451;-62
2022/07/03 12:32:27;;;;;;;;;;;;;;;;;;4990103;28;137619;-64
2022/07/03 12:34:53;;;;;;;;;;;;;;;;;;4977667;28;129325;-65
2022/07/03 12:37:19;;;;;;;;;;;;;;;;;;5002301;28;124249;-65
2022/07/03 12:39:46;;;;;;;;;;;;;;;;;;4982038;28;138557;-64
2022/07/03 12:42:12;;;;;;;;;;;;;;;;;;4981108;28;137237;-64
2022/07/03 12:44:38;;;;;;;;;;;;;;;;;;4980328;28;113941;-65
2022/07/03 12:47:05;;;;;;;;;;;;;;;;;;4979411;28;138325;-64
2022/07/03 12:49:32;;;;;;;;;;;;;;;;;;4985173;28;138935;-65
2022/07/03 12:51:58;;;;;;;;;;;;;;;;;;4983006;28;138372;-64
2022/07/03 12:54:25;;;;;;;;;;;;;;;;;;4976830;28;135612;-64
2022/07/03 12:56:51;;;;;;;;;;;;;;;;;;4980694;28;126593;-66
2022/07/03 12:59:17;;;;;;;;;;;;;;;;;;4982956;28;117927;-63
2022/07/03 13:01:44;;;;;;;;;;;;;;;;;;4980026;28;135862;-65
2022/07/03 13:04:14;;;;;;;;;;;;;;;;;;4983018;28;109051;-65
2022/07/03 13:06:41;;;;;;;;;;;;;;;;;;4981916;28;135655;-65
2022/07/03 13:09:07;;;;;;;;;;;;;;;;;;4978950;28;138056;-65
2022/07/03 13:11:34;;;;;;;;;;;;;;;;;;4985704;28;122428;-65
2022/07/03 13:14:00;;;;;;;;;;;;;;;;;;4979735;28;138304;-64
2022/07/03 13:16:27;;;;;;;;;;;;;;;;;;4981159;28;125278;-64
2022/07/03 13:18:53;;;;;;;;;;;;;;;;;;4981163;28;129926;-65
2022/07/03 13:21:19;;;;;;;;;;;;;;;;;;4980297;28;133813;-65
2022/07/03 13:23:46;;;;;;;;;;;;;;;;;;4980516;28;123811;-64
2022/07/03 13:26:12;;;;;;;;;;;;;;;;;;4983414;28;113332;-65
2022/07/03 13:28:38;;;;;;;;;;;;;;;;;;4974802;28;139409;-64
2022/07/03 13:31:04;;;;;;;;;;;;;;;;;;4984862;28;123507;-63
2022/07/03 13:33:31;;;;;;;;;;;;;;;;;;4986357;28;126117;-64
2022/07/03 13:35:57;;;;;;;;;;;;;;;;;;4986127;28;125153;-64
2022/07/03 13:38:23;;;;;;;;;;;;;;;;;;4990226;28;123876;-65
2022/07/03 13:40:49;;;;;;;;;;;;;;;;;;4988917;28;117675;-64
2022/07/03 13:43:16;;;;;;;;;;;;;;;;;;4983755;28;123576;-64
2022/07/03 13:45:43;;;;;;;;;;;;;;;;;;4989218;28;133712;-65
2022/07/03 13:48:09;;;;;;;;;;;;;;;;;;4980846;28;136200;-65
2022/07/03 13:50:36;;;;;;;;;;;;;;;;;;4989649;28;107781;-64
2022/07/03 13:53:02;;;;;;;;;;;;;;;;;;4990005;28;135458;-64
2022/07/03 13:55:28;;;;;;;;;;;;;;;;;;4980274;28;122092;-64
2022/07/03 13:57:55;;;;;;;;;;;;;;;;;;4975797;28;127405;-65
2022/07/03 14:00:21;;;;;;;;;;;;;;;;;;4982742;28;130016;-65
2022/07/03 14:02:47;;;;;;;;;;;;;;;;;;4982577;28;108757;-64
2022/07/03 14:05:14;;;;;;;;;;;;;;;;;;4979263;28;134444;-64
2022/07/03 14:07:40;;;;;;;;;;;;;;;;;;4982452;28;107181;-64
2022/07/03 14:10:06;;;;;;;;;;;;;;;;;;4979836;28;123609;-66
2022/07/03 14:12:33;;;;;;;;;;;;;;;;;;4979888;28;129961;-64
2022/07/03 14:14:59;;;;;;;;;;;;;;;;;;4984099;28;108911;-65
2022/07/03 14:17:27;;;;;;;;;;;;;;;;;;4979299;28;118986;-66
2022/07/03 14:19:53;;;;;;;;;;;;;;;;;;4976588;28;135878;-64
2022/07/03 14:22:20;;;;;;;;;;;;;;;;;;4981795;28;120547;-64
2022/07/03 14:24:46;;;;;;;;;;;;;;;;;;4980719;28;132394;-65
2022/07/03 14:32:42;;;;;;;;;;;;;;;;;;4981092;28;135821;-64
2022/07/03 14:35:09;;;;;;;;;;;;;;;;;;4975950;28;132132;-64
2022/07/03 14:37:35;;;;;;;;;;;;;;;;;;4983148;28;108638;-64
2022/07/03 14:40:01;;;;;;;;;;;;;;;;;;4978144;28;133623;-64
2022/07/03 14:42:27;;;;;;;;;;;;;;;;;;4978992;28;123788;-65
2022/07/03 14:44:54;;;;;;;;;;;;;;;;;;4976394;28;132672;-65
2022/07/03 14:47:20;;;;;;;;;;;;;;;;;;4980335;28;126992;-64
2022/07/03 14:49:47;;;;;;;;;;;;;;;;;;4979415;28;121573;-64
2022/07/03 14:52:13;;;;;;;;;;;;;;;;;;4981785;28;134517;-64
2022/07/03 14:54:41;;;;;;;;;;;;;;;;;;4979423;28;133626;-64
2022/07/03 14:57:08;;;;;;;;;;;;;;;;;;4979022;28;108533;-64
2022/07/03 14:59:35;;;;;;;;;;;;;;;;;;4981837;28;137862;-64
2022/07/03 15:02:01;;;;;;;;;;;;;;;;;;4979961;28;107636;-64
2022/07/03 15:04:27;;;;;;;;;;;;;;;;;;4979489;28;130748;-64
2022/07/03 15:06:53;;;;;;;;;;;;;;;;;;4980883;28;116414;-64
2022/07/03 15:09:20;;;;;;;;;;;;;;;;;;4981758;28;119829;-65
2022/07/03 15:14:31;;;;;;;;;;;;;;;;;;4979365;28;137337;-63
2022/07/03 15:17:01;;;;;;;;;;;;;;;;;;4980094;28;120972;-64
2022/07/03 15:19:27;;;;;;;;;;;;;;;;;;4984493;28;135280;-65
2022/07/03 15:21:53;;;;;;;;;;;;;;;;;;4990840;28;124787;-64
2022/07/03 15:24:25;;;;;;;;;;;;;;;;;;4979078;28;128768;-64
2022/07/03 15:26:51;;;;;;;;;;;;;;;;;;4981266;28;119461;-66
2022/07/03 15:29:17;;;;;;;;;;;;;;;;;;4979076;28;108180;-64
2022/07/03 15:31:44;;;;;;;;;;;;;;;;;;4978225;28;132560;-64
2022/07/03 15:34:10;;;;;;;;;;;;;;;;;;4978024;28;135097;-64
2022/07/03 15:36:36;;;;;;;;;;;;;;;;;;4981473;28;113451;-63
2022/07/03 15:39:03;;;;;;;;;;;;;;;;;;4980508;28;132363;-64
2022/07/03 15:41:29;;;;;;;;;;;;;;;;;;4985186;28;138525;-64
2022/07/03 15:43:56;;;;;;;;;;;;;;;;;;4975132;28;128314;-63
2022/07/03 15:46:22;;;;;;;;;;;;;;;;;;4992350;28;136242;-64
2022/07/03 15:48:48;;;;;;;;;;;;;;;;;;4977833;28;110192;-65
2022/07/03 15:51:15;;;;;;;;;;;;;;;;;;4987340;28;125468;-65
2022/07/03 15:53:41;;;;;;;;;;;;;;;;;;4980603;28;109316;-65
2022/07/03 15:56:08;;;;;;;;;;;;;;;;;;4977468;28;122036;-65
2022/07/03 15:58:35;;;;;;;;;;;;;;;;;;4979925;28;114490;-64
2022/07/03 16:03:46;;;;;;;;;;;;;;;;;;4984113;28;108694;-63
2022/07/03 16:06:12;;;;;;;;;;;;;;;;;;4977573;28;136537;-64
2022/07/03 16:08:39;;;;;;;;;;;;;;;;;;4978021;28;108450;-63
2022/07/03 16:11:05;;;;;;;;;;;;;;;;;;4977765;28;127889;-63
2022/07/03 16:13:31;;;;;;;;;;;;;;;;;;4978729;28;111419;-63
2022/07/03 16:15:58;;;;;;;;;;;;;;;;;;4979690;28;121257;-63
2022/07/03 16:18:24;;;;;;;;;;;;;;;;;;4978448;28;133440;-63
2022/07/03 16:20:51;;;;;;;;;;;;;;;;;;4979291;28;133344;-65
2022/07/03 16:23:17;;;;;;;;;;;;;;;;;;4980019;28;123634;-65
2022/07/03 16:25:43;;;;;;;;;;;;;;;;;;4983748;28;116155;-63
2022/07/03 16:28:10;;;;;;;;;;;;;;;;;;4980896;28;107227;-63
2022/07/03 16:30:36;;;;;;;;;;;;;;;;;;4985719;28;134502;-64
2022/07/03 16:33:02;;;;;;;;;;;;;;;;;;4983697;28;107234;-64
2022/07/03 16:35:28;;;;;;;;;;;;;;;;;;4985241;28;123920;-64
2022/07/03 16:37:55;;;;;;;;;;;;;;;;;;4984365;28;137177;-64
2022/07/03 16:40:22;;;;;;;;;;;;;;;;;;4979892;28;132807;-65
2022/07/03 16:42:49;;;;;;;;;;;;;;;;;;4972479;28;124078;-64